Time;durP1;ratioP1;P1;durP2;ratioP2;P2;SDS_P1;SDS_P2;PMS_P1;PMS_P2;Temp;Humidity;BMP_temperature;BMP_pressure;BME280_temperature;BME280_humidity;BME280_pressure;Samples;Min_cycle;Max_cycle;Signal;HPM_P1;HPM_P2
2023/07/30 00:01:29;;;;;;;17.10;4.25;;;;;;;14.28;100.00;100776.25;5061896;28;20029;-63
2023/07/30 00:03:55;;;;;;;15.15;4.00;;;;;;;14.27;100.00;100771.81;5062819;28;20118;-65
2023/07/30 00:06:20;;;;;;;18.02;4.40;;;;;;;14.24;100.00;100785.16;5059802;28;20048;-63
2023/07/30 00:08:45;;;;;;;17.13;4.05;;;;;;;14.22;100.00;100778.94;5067219;28;20063;-63
2023/07/30 00:11:11;;;;;;;15.95;4.00;;;;;;;14.22;100.00;100778.94;5064315;28;20123;-63
2023/07/30 00:13:36;;;;;;;18.17;4.78;;;;;;;14.20;100.00;100777.19;5066666;28;20033;-64
2023/07/30 00:16:01;;;;;;;18.63;4.20;;;;;;;14.27;100.00;100778.88;5065517;28;20035;-65
2023/07/30 00:18:27;;;;;;;18.67;4.35;;;;;;;14.22;100.00;100776.28;5065539;28;20064;-64
2023/07/30 00:20:52;;;;;;;16.92;4.20;;;;;;;14.17;100.00;100770.16;5066457;28;20119;-63
2023/07/30 00:23:17;;;;;;;19.52;4.35;;;;;;;14.17;100.00;100775.47;5063697;28;20021;-64
2023/07/30 00:25:43;;;;;;;18.55;4.15;;;;;;;14.08;100.00;100768.50;5067253;28;20109;-63
2023/07/30 00:28:08;;;;;;;18.33;4.20;;;;;;;14.08;100.00;100779.13;5064160;28;20033;-63
2023/07/30 00:30:33;;;;;;;16.23;4.10;;;;;;;14.03;100.00;100780.06;5064527;28;20032;-63
2023/07/30 00:32:59;;;;;;;17.77;4.40;;;;;;;13.95;100.00;100780.16;5065479;28;20033;-64
2023/07/30 00:35:24;;;;;;;18.10;4.47;;;;;;;13.92;100.00;100773.09;5064292;28;20040;-63
2023/07/30 00:37:49;;;;;;;18.77;4.20;;;;;;;13.87;100.00;100779.34;5066649;28;20107;-64
2023/07/30 00:40:15;;;;;;;17.33;4.30;;;;;;;13.85;100.00;100784.69;5063310;28;20085;-64
2023/07/30 00:42:40;;;;;;;18.30;4.53;;;;;;;13.81;100.00;100787.38;5066494;28;20031;-64
2023/07/30 00:45:06;;;;;;;17.17;4.35;;;;;;;13.75;100.00;100780.34;5064297;28;20112;-63
2023/07/30 00:47:32;;;;;;;18.48;4.57;;;;;;;13.71;100.00;100781.28;5065194;28;20037;-72
2023/07/30 00:49:57;;;;;;;17.50;4.40;;;;;;;13.65;100.00;100789.31;5065327;28;20033;-64
2023/07/30 00:52:24;;;;;;;17.88;4.47;;;;;;;13.67;100.00;100788.38;5064106;28;20025;-64
2023/07/30 00:54:51;;;;;;;19.75;5.13;;;;;;;13.69;100.00;100785.72;5066650;28;20384;-63
2023/07/30 00:57:19;;;;;;;17.35;4.50;;;;;;;13.64;100.00;100791.06;5063011;28;20104;-63
2023/07/30 00:59:45;;;;;;;18.58;4.72;;;;;;;13.70;100.00;100792.78;5059604;28;20419;-65
2023/07/30 01:02:12;;;;;;;18.25;4.70;;;;;;;13.67;100.00;100795.47;5066111;28;20086;-63
2023/07/30 01:04:39;;;;;;;19.92;5.03;;;;;;;13.71;100.00;100794.56;5063593;28;20036;-73
2023/07/30 01:07:05;;;;;;;17.85;4.90;;;;;;;13.70;100.00;100803.41;5065396;28;20060;-64
2023/07/30 01:09:31;;;;;;;16.48;4.50;;;;;;;13.69;100.00;100801.66;5064230;28;20052;-63
2023/07/30 01:11:57;;;;;;;18.48;4.65;;;;;;;13.66;100.00;100815.84;5064000;28;20090;-63
2023/07/30 01:14:26;;;;;;;18.20;5.00;;;;;;;13.71;100.00;100805.19;5064330;28;20426;-63
2023/07/30 01:16:51;;;;;;;20.95;5.25;;;;;;;13.66;100.00;100817.63;5063137;28;20033;-64
2023/07/30 01:19:16;;;;;;;19.00;4.78;;;;;;;13.65;100.00;100818.53;5064481;28;20040;-78
2023/07/30 01:21:42;;;;;;;20.40;5.07;;;;;;;13.71;100.00;100821.13;5063012;28;20033;-63
2023/07/30 01:24:07;;;;;;;20.17;4.85;;;;;;;13.73;100.00;100821.97;5065232;28;20043;-79
2023/07/30 01:26:42;;;;;;;18.98;4.60;;;;;;;13.70;100.00;100829.97;5063933;28;20017;-64
2023/07/30 01:29:14;;;;;;;19.15;4.60;;;;;;;13.62;100.00;100821.22;5065390;28;20585;-63
2023/07/30 01:31:41;;;;;;;19.60;4.82;;;;;;;13.60;100.00;100830.06;5063079;28;20021;-63
2023/07/30 01:34:09;;;;;;;19.10;4.50;;;;;;;13.60;100.00;100829.16;5064825;28;20021;-63
2023/07/30 01:36:36;;;;;;;19.63;5.00;;;;;;;13.57;100.00;100831.84;5063387;28;20091;-63
2023/07/30 01:39:02;;;;;;;20.23;4.80;;;;;;;13.56;100.00;100835.44;5064512;28;20423;-64
2023/07/30 01:41:27;;;;;;;17.85;4.55;;;;;;;13.56;100.00;100833.63;5064405;28;20068;-67
2023/07/30 01:43:54;;;;;;;20.95;4.90;;;;;;;13.55;100.00;100831.88;5062967;28;20108;-63
2023/07/30 01:46:19;;;;;;;18.02;4.80;;;;;;;13.54;100.00;100829.22;5065607;28;20032;-63
2023/07/30 01:48:44;;;;;;;17.42;4.80;;;;;;;13.48;100.00;100834.59;5062185;28;20033;-63
2023/07/30 01:51:10;;;;;;;20.23;5.07;;;;;;;13.46;100.00;100845.22;5065111;28;20071;-63
2023/07/30 01:53:35;;;;;;;19.02;4.95;;;;;;;13.45;100.00;100840.81;5063337;28;20036;-79
2023/07/30 01:56:00;;;;;;;20.17;5.18;;;;;;;13.41;100.00;100844.38;5063643;28;20031;-63
2023/07/30 01:58:25;;;;;;;20.45;5.30;;;;;;;13.42;100.00;100839.03;5064469;28;20090;-79
2023/07/30 02:00:51;;;;;;;19.25;4.72;;;;;;;13.37;100.00;100829.38;5062095;28;20037;-68
2023/07/30 02:03:16;;;;;;;19.25;4.80;;;;;;;13.35;100.00;100841.75;5065315;28;20020;-63
2023/07/30 02:05:42;;;;;;;21.38;5.28;;;;;;;13.41;100.00;100839.06;5062126;28;20033;-63
2023/07/30 02:08:07;;;;;;;17.98;4.80;;;;;;;13.39;100.00;100841.72;5064155;28;20041;-64
2023/07/30 02:10:33;;;;;;;18.20;4.85;;;;;;;13.38;100.00;100834.69;5063111;28;20036;-63
2023/07/30 02:12:59;;;;;;;18.15;5.00;;;;;;;13.39;100.00;100833.75;5063258;28;20032;-63
2023/07/30 02:15:24;;;;;;;20.20;5.28;;;;;;;13.35;100.00;100840.00;5064234;28;20170;-72
2023/07/30 02:17:49;;;;;;;20.30;5.30;;;;;;;13.39;100.00;100835.53;5061617;28;20033;-74
2023/07/30 02:20:15;;;;;;;19.10;5.30;;;;;;;13.43;100.00;100830.19;5065048;28;20032;-67
2023/07/30 02:22:40;;;;;;;19.50;5.18;;;;;;;13.48;100.00;100834.59;5061822;28;20040;-64
2023/07/30 02:25:06;;;;;;;19.52;5.18;;;;;;;13.52;100.00;100829.25;5063908;28;20108;-64
2023/07/30 02:27:31;;;;;;;20.63;5.25;;;;;;;13.55;100.00;100823.91;5063079;28;20048;-63
2023/07/30 02:29:57;;;;;;;21.70;5.82;;;;;;;13.59;100.00;100817.66;5061503;28;20032;-63
2023/07/30 02:32:22;;;;;;;20.05;5.32;;;;;;;13.59;100.00;100828.31;5064260;28;20119;-63
2023/07/30 02:34:47;;;;;;;20.92;5.60;;;;;;;13.63;100.00;100826.50;5061141;28;20058;-63
2023/07/30 02:37:13;;;;;;;21.27;5.80;;;;;;;13.70;100.00;100829.97;5064358;28;20032;-63
2023/07/30 02:39:38;;;;;;;22.50;6.00;;;;;;;13.72;100.00;100828.22;5062397;28;20076;-64
2023/07/30 02:42:03;;;;;;;21.35;5.60;;;;;;;13.75;100.00;100823.72;5062989;28;20043;-63
2023/07/30 02:44:29;;;;;;;22.45;5.90;;;;;;;13.81;100.00;100827.25;5063169;28;20064;-64
2023/07/30 02:46:54;;;;;;;21.40;6.25;;;;;;;13.82;100.00;100821.91;5061944;28;20079;-63
2023/07/30 02:49:19;;;;;;;21.08;5.90;;;;;;;13.83;100.00;100823.66;5064639;28;20589;-63
2023/07/30 02:51:48;;;;;;;21.33;5.78;;;;;;;13.88;100.00;100828.94;5060993;28;20032;-63
2023/07/30 02:54:14;;;;;;;20.08;5.80;;;;;;;13.90;100.00;100822.69;5064490;28;20028;-64
2023/07/30 02:56:39;;;;;;;22.80;5.90;;;;;;;13.93;100.00;100827.09;5061523;28;20550;-64
2023/07/30 02:59:05;;;;;;;20.38;5.85;;;;;;;13.95;100.00;100830.66;5062947;28;20112;-64
2023/07/30 03:01:30;;;;;;;20.08;5.50;;;;;;;13.94;100.00;100824.44;5062869;28;20052;-63
2023/07/30 03:03:55;;;;;;;21.60;5.63;;;;;;;13.94;100.00;100832.41;5061756;28;20384;-64
2023/07/30 03:06:21;;;;;;;20.67;6.15;;;;;;;13.95;100.00;100831.53;5064100;28;20119;-79
2023/07/30 03:08:46;;;;;;;20.13;5.93;;;;;;;13.94;100.00;100831.53;5060616;28;20080;-65
2023/07/30 03:11:13;;;;;;;20.33;5.97;;;;;;;13.93;100.00;100827.97;5064140;28;20044;-63
2023/07/30 03:13:38;;;;;;;20.67;6.05;;;;;;;13.96;100.00;100824.41;5061688;28;20074;-74
2023/07/30 03:16:04;;;;;;;21.48;6.00;;;;;;;13.95;100.00;100828.00;5062638;28;20032;-64
2023/07/30 03:18:30;;;;;;;22.35;5.80;;;;;;;13.94;100.00;100840.38;5062645;28;20027;-65
2023/07/30 03:21:03;;;;;;;22.27;6.00;;;;;;;13.97;100.00;100834.16;5061697;28;20384;-63
2023/07/30 03:23:28;;;;;;;21.50;5.72;;;;;;;13.95;100.00;100834.19;5063017;28;20028;-67
2023/07/30 03:25:54;;;;;;;22.33;5.72;;;;;;;13.97;100.00;100833.28;5061141;28;20482;-64
2023/07/30 03:28:19;;;;;;;21.58;6.00;;;;;;;13.97;100.00;100833.28;5064274;28;20024;-63
2023/07/30 03:30:44;;;;;;;22.30;5.57;;;;;;;14.02;100.00;100831.47;5060549;28;20561;-80
2023/07/30 03:33:10;;;;;;;22.08;5.72;;;;;;;14.01;100.00;100835.00;5063379;28;20482;-76
2023/07/30 03:35:35;;;;;;;22.42;5.68;;;;;;;14.02;100.00;100836.78;5061855;28;20104;-63
2023/07/30 03:38:01;;;;;;;22.30;5.90;;;;;;;14.03;100.00;100834.09;5061984;28;20044;-63
2023/07/30 03:40:26;;;;;;;20.13;5.35;;;;;;;14.02;100.00;100836.78;5062942;28;20384;-62
2023/07/30 03:42:52;;;;;;;19.92;5.30;;;;;;;14.02;100.00;100842.94;5063911;28;20037;-63
2023/07/30 03:45:17;;;;;;;23.10;5.75;;;;;;;14.00;100.00;100834.13;5067923;28;20032;-64
2023/07/30 03:47:42;;;;;;;22.10;5.65;;;;;;;14.00;100.00;100842.09;5064679;28;20488;-64
2023/07/30 03:50:08;;;;;;;22.15;5.80;;;;;;;13.99;100.00;100847.44;5067008;28;20033;-63
2023/07/30 03:52:33;;;;;;;21.23;5.38;;;;;;;13.99;100.00;100848.31;5065797;28;20555;-63
2023/07/30 03:54:59;;;;;;;21.45;5.28;;;;;;;14.03;100.00;100849.16;5065591;28;20422;-63
2023/07/30 03:57:24;;;;;;;21.92;5.55;;;;;;;14.02;100.00;100853.59;5067097;28;20386;-63
2023/07/30 03:59:49;;;;;;;21.52;5.57;;;;;;;14.00;100.00;100850.06;5064238;28;20460;-63
2023/07/30 04:02:15;;;;;;;23.25;5.70;;;;;;;14.03;100.00;100851.84;5067647;28;20036;-63
2023/07/30 04:04:43;;;;;;;22.58;5.45;;;;;;;14.06;100.00;100860.63;5064580;28;20033;-63
2023/07/30 04:07:09;;;;;;;20.50;5.05;;;;;;;14.04;100.00;100856.25;5066596;28;20036;-63
2023/07/30 04:09:34;;;;;;;22.98;5.63;;;;;;;14.03;100.00;100859.81;5065352;28;20048;-63
2023/07/30 04:11:59;;;;;;;21.60;5.65;;;;;;;14.05;100.00;100865.97;5065247;28;20112;-63
2023/07/30 04:14:24;;;;;;;21.08;5.78;;;;;;;14.07;100.00;100858.88;5066563;28;20021;-72
2023/07/30 04:16:50;;;;;;;20.80;5.50;;;;;;;14.09;100.00;100854.41;5064025;28;20032;-63
2023/07/30 04:19:15;;;;;;;22.73;5.75;;;;;;;14.10;100.00;100862.38;5067231;28;20467;-63
2023/07/30 04:21:41;;;;;;;24.45;5.97;;;;;;;14.07;100.00;100859.75;5064121;28;20046;-63
2023/07/30 04:24:06;;;;;;;23.77;6.20;;;;;;;14.10;100.00;100861.50;5066091;28;20029;-66
2023/07/30 04:26:31;;;;;;;23.42;6.60;;;;;;;14.12;100.00;100857.03;5065548;28;20051;-71
2023/07/30 04:28:56;;;;;;;23.35;6.15;;;;;;;14.19;100.00;100865.84;5064483;28;20035;-63
2023/07/30 04:31:22;;;;;;;23.13;7.00;;;;;;;14.19;100.00;100856.09;5066927;28;20028;-63
2023/07/30 04:33:47;;;;;;;23.98;6.80;;;;;;;14.25;100.00;100860.47;5063527;28;20036;-63
2023/07/30 04:36:13;;;;;;;22.23;7.18;;;;;;;14.25;100.00;100861.31;5066740;28;20028;-64
2023/07/30 04:38:38;;;;;;;23.98;7.20;;;;;;;14.27;100.00;100854.25;5064826;28;20033;-63
2023/07/30 04:41:03;;;;;;;22.38;6.95;;;;;;;14.29;100.00;100855.09;5065056;28;20029;-63
2023/07/30 04:43:29;;;;;;;24.98;6.93;;;;;;;14.27;100.00;100856.91;5065879;28;20074;-64
2023/07/30 04:45:54;;;;;;;23.33;7.10;;;;;;;14.29;100.00;100857.75;5063743;28;20017;-63
2023/07/30 04:48:19;;;;;;;22.92;7.07;;;;;;;14.32;100.00;100859.50;5066836;28;20020;-63
2023/07/30 04:50:45;;;;;;;25.60;7.18;;;;;;;14.38;100.00;100850.56;5063444;28;20033;-63
2023/07/30 04:53:10;;;;;;;22.13;6.85;;;;;;;14.43;100.00;100862.94;5064866;28;20060;-63
2023/07/30 04:55:35;;;;;;;23.15;6.93;;;;;;;14.43;100.00;100864.69;5064434;28;20032;-65
2023/07/30 04:58:01;;;;;;;22.20;6.68;;;;;;;14.48;100.00;100862.88;5064696;28;20064;-63
2023/07/30 05:00:26;;;;;;;22.75;7.00;;;;;;;14.53;100.00;100869.00;5065472;28;20021;-63
2023/07/30 05:02:52;;;;;;;25.33;7.53;;;;;;;14.55;100.00;100875.19;5063200;28;20041;-65
2023/07/30 05:05:17;;;;;;;21.50;7.40;;;;;;;14.57;100.00;100870.72;5066534;28;20052;-63
2023/07/30 05:07:42;;;;;;;24.75;7.40;;;;;;;14.55;100.00;100880.53;5063117;28;20071;-65
2023/07/30 05:10:10;;;;;;;25.38;8.13;;;;;;;14.57;100.00;100881.38;5065310;28;20087;-64
2023/07/30 05:12:36;;;;;;;25.40;7.85;;;;;;;14.61;100.00;100880.47;5064339;28;20033;-63
2023/07/30 05:15:02;;;;;;;25.58;8.18;;;;;;;14.62;100.00;100879.59;5064257;28;20025;-63
2023/07/30 05:17:27;;;;;;;24.10;7.78;;;;;;;14.60;100.00;100888.44;5065359;28;20031;-63
2023/07/30 05:19:53;;;;;;;24.77;7.25;;;;;;;14.58;100.00;100895.56;5062989;28;20383;-64
2023/07/30 05:22:19;;;;;;;24.02;7.13;;;;;;;14.65;100.00;100889.31;5066061;28;20455;-63
2023/07/30 05:24:44;;;;;;;24.42;7.47;;;;;;;14.67;100.00;100900.81;5061579;28;20025;-63
2023/07/30 05:27:09;;;;;;;23.67;7.47;;;;;;;14.68;100.00;100885.72;5065083;28;20028;-63
2023/07/30 05:29:34;;;;;;;24.35;7.38;;;;;;;14.69;100.00;100898.13;5063971;28;20112;-63
2023/07/30 05:32:00;;;;;;;26.60;7.40;;;;;;;14.70;100.00;100898.09;5063900;28;20032;-79
2023/07/30 05:34:25;;;;;;;26.52;7.93;;;;;;;14.68;100.00;100894.59;5065128;28;20031;-63
2023/07/30 05:36:50;;;;;;;24.27;7.40;;;;;;;14.72;100.00;100887.44;5062254;28;20411;-64
2023/07/30 05:39:16;;;;;;;25.85;7.38;;;;;;;14.77;100.00;100886.50;5058458;28;20060;-63
2023/07/30 05:41:41;;;;;;;22.88;7.00;;;;;;;14.82;100.00;100883.78;5065095;28;20040;-67
2023/07/30 05:44:07;;;;;;;26.00;7.25;;;;;;;14.84;100.00;100887.31;5063413;28;20111;-63
2023/07/30 05:46:32;;;;;;;25.55;7.40;;;;;;;14.85;100.00;100894.38;5063879;28;20060;-63
2023/07/30 05:48:58;;;;;;;24.48;7.78;;;;;;;14.86;100.00;100882.84;5064519;28;20021;-63
2023/07/30 05:51:23;;;;;;;28.38;7.97;;;;;;;14.91;100.00;100891.66;5062328;28;20029;-63
2023/07/30 05:53:48;;;;;;;26.67;7.85;;;;;;;14.93;100.00;100887.19;5065682;28;20475;-63
2023/07/30 05:56:14;;;;;;;25.85;7.82;;;;;;;15.02;100.00;100893.28;5062141;28;20541;-68
2023/07/30 05:58:39;;;;;;;27.48;8.35;;;;;;;15.04;100.00;100897.69;5064651;28;20040;-66
2023/07/30 06:01:05;;;;;;;24.67;7.65;;;;;;;15.08;100.00;100891.41;5063092;28;20421;-64
2023/07/30 06:03:30;;;;;;;23.30;7.78;;;;;;;15.11;100.00;100896.69;5058283;28;20039;-64
2023/07/30 06:05:56;;;;;;;24.80;7.57;;;;;;;15.18;100.00;100902.81;5065112;28;20028;-64
2023/07/30 06:08:21;;;;;;;25.63;8.05;;;;;;;15.21;100.00;100891.25;5061242;28;20472;-64
2023/07/30 06:10:47;;;;;;;26.35;7.50;;;;;;;15.24;100.00;100902.72;5064520;28;20094;-79
2023/07/30 06:13:12;;;;;;;26.02;7.35;;;;;;;15.27;100.00;100900.03;5062888;28;20116;-79
2023/07/30 06:15:38;;;;;;;24.13;7.38;;;;;;;15.24;100.00;100904.53;5063213;28;20063;-79
2023/07/30 06:18:03;;;;;;;24.77;7.43;;;;;;;15.26;100.00;100898.28;5063884;28;20115;-64
2023/07/30 06:20:30;;;;;;;25.42;7.93;;;;;;;15.26;100.00;100900.03;5062290;28;20112;-64
2023/07/30 06:22:55;;;;;;;24.13;7.60;;;;;;;15.30;100.00;100896.44;5064817;28;20488;-65
2023/07/30 06:25:20;;;;;;;23.80;7.85;;;;;;;15.36;100.00;100901.66;5057391;28;20041;-64
2023/07/30 06:27:46;;;;;;;27.52;8.27;;;;;;;15.44;100.00;100904.25;5064436;28;20021;-64
2023/07/30 06:30:12;;;;;;;25.02;8.15;;;;;;;15.46;100.00;100905.09;5062543;28;20096;-66
2023/07/30 06:32:37;;;;;;;27.05;8.30;;;;;;;15.41;100.00;100898.97;5063404;28;20494;-64
2023/07/30 06:35:03;;;;;;;25.52;7.60;;;;;;;15.45;100.00;100901.56;5063838;28;20039;-63
2023/07/30 06:37:28;;;;;;;26.95;7.75;;;;;;;15.49;100.00;100903.28;5061462;28;20432;-64
2023/07/30 06:39:54;;;;;;;23.90;7.43;;;;;;;15.57;100.00;100903.16;5064832;28;20491;-79
2023/07/30 06:42:19;;;;;;;25.65;7.60;;;;;;;15.56;100.00;100903.19;5061177;28;20127;-78
2023/07/30 06:44:44;;;;;;;26.50;7.55;;;;;;;15.61;100.00;100893.31;5063728;28;20029;-73
2023/07/30 06:47:10;;;;;;;24.58;7.10;;;;;;;15.69;100.00;100894.94;5062838;28;20037;-73
2023/07/30 06:49:36;;;;;;;24.92;6.97;;;;;;;15.78;100.00;100890.38;5062642;28;20476;-63
2023/07/30 06:52:02;;;;;;;24.85;6.80;;;;;;;15.90;100.00;100895.56;5063529;28;20365;-67
2023/07/30 06:54:29;;;;;;;31.50;7.78;;;;;;;15.91;100.00;100904.44;5061410;28;20117;-74
2023/07/30 06:56:54;;;;;;;23.15;7.10;;;;;;;15.92;100.00;100906.19;5064423;28;20048;-64
2023/07/30 06:59:20;;;;;;;21.75;6.20;;;;;;;15.98;100.00;100906.09;5060669;28;20106;-64
2023/07/30 07:01:45;;;;;;;25.50;6.80;;;;;;;16.00;100.00;100907.81;5063640;28;20032;-80
2023/07/30 07:04:11;;;;;;;27.98;6.88;;;;;;;16.02;100.00;100906.00;5062268;28;20033;-80
2023/07/30 07:06:36;;;;;;;24.88;6.80;;;;;;;16.01;100.00;100917.56;5062224;28;20039;-80
2023/07/30 07:09:01;;;;;;;23.80;6.55;;;;;;;16.02;100.00;100914.00;5063679;28;20067;-80
2023/07/30 07:11:27;;;;;;;24.83;6.50;;;;;;;15.96;100.00;100913.22;5060803;28;20036;-80
2023/07/30 07:13:52;;;;;;;24.38;6.15;;;;;;;15.95;100.00;100925.66;5064475;28;20104;-80
2023/07/30 07:16:18;;;;;;;24.88;6.55;;;;;;;15.91;100.00;100905.28;5060964;28;20084;-82
2023/07/30 07:18:44;;;;;;;23.13;5.97;;;;;;;16.03;100.00;100906.88;5063044;28;20029;-80
2023/07/30 07:21:10;;;;;;;23.20;5.63;;;;;;;16.17;100.00;100917.31;5062514;28;20037;-80
2023/07/30 07:23:36;;;;;;;23.88;6.40;;;;;;;16.32;100.00;100903.69;5061868;28;20033;-80
2023/07/30 07:26:01;;;;;;;24.52;6.20;;;;;;;16.48;100.00;100914.06;5063483;28;20035;-80
2023/07/30 07:28:26;;;;;;;24.55;5.95;;;;;;;16.62;100.00;100916.50;5060898;28;20025;-80
2023/07/30 07:30:52;;;;;;;23.88;5.82;;;;;;;16.65;100.00;100914.63;5064335;28;20047;-81
2023/07/30 07:33:17;;;;;;;23.83;5.57;;;;;;;16.92;100.00;100917.69;5061364;28;20037;-80
2023/07/30 07:35:42;;;;;;;22.85;5.30;;;;;;;17.15;100.00;100909.16;5063188;28;20108;-80
2023/07/30 07:38:08;;;;;;;23.15;5.18;;;;;;;17.22;100.00;100920.59;5062683;28;20060;-81
2023/07/30 07:40:40;;;;;;;21.42;4.90;;;;;;;17.17;100.00;100926.06;5061348;28;20032;-80
2023/07/30 07:43:07;;;;;;;21.33;4.80;;;;;;;16.95;100.00;100927.41;5062790;28;20543;-64
2023/07/30 07:45:32;;;;;;;24.08;5.07;;;;;;;16.81;100.00;100935.69;5061309;28;20025;-65
2023/07/30 07:47:58;;;;;;;23.67;5.03;;;;;;;16.73;100.00;100926.03;5063542;28;20044;-78
2023/07/30 07:50:23;;;;;;;21.83;4.93;;;;;;;16.67;100.00;100928.84;5060623;28;20040;-64
2023/07/30 07:52:48;;;;;;;23.40;5.40;;;;;;;16.81;100.00;100925.00;5063540;28;20120;-79
2023/07/30 07:55:14;;;;;;;25.85;5.20;;;;;;;17.02;100.00;100923.69;5061343;28;20468;-64
2023/07/30 07:57:39;;;;;;;23.27;5.35;;;;;;;17.20;100.00;100927.78;5062327;28;20067;-79
2023/07/30 08:00:06;;;;;;;21.75;4.93;;;;;;;17.34;100.00;100933.69;5062667;28;20409;-63
2023/07/30 08:02:32;;;;;;;23.35;4.90;;;;;;;17.40;100.00;100925.53;5060913;28;20044;-74
2023/07/30 08:04:57;;;;;;;20.98;4.50;;;;;;;17.54;100.00;100927.88;5063817;28;20021;-64
2023/07/30 08:07:22;;;;;;;24.27;4.85;;;;;;;17.62;100.00;100934.84;5060221;28;20029;-64
2023/07/30 08:09:48;;;;;;;22.95;5.05;;;;;;;17.69;100.00;100932.00;5062890;28;20502;-64
2023/07/30 08:12:14;;;;;;;24.58;5.20;;;;;;;17.89;100.00;100933.31;5061382;28;20514;-65
2023/07/30 08:14:39;;;;;;;22.27;5.05;;;;;;;17.92;100.00;100942.16;5061877;28;20025;-80
2023/07/30 08:17:05;;;;;;;23.02;4.65;;;;;;;17.97;100.00;100951.88;5062690;28;20585;-68
2023/07/30 08:19:30;;;;;;;23.48;4.78;;;;;;;17.91;100.00;100942.19;5060552;28;20025;-64
2023/07/30 08:21:56;;;;;;;22.17;4.70;;;;;;;17.77;100.00;100943.38;5058807;28;20068;-76
2023/07/30 08:24:22;;;;;;;22.45;4.95;;;;;;;17.50;100.00;100954.72;5060803;28;20082;-64
2023/07/30 08:26:48;;;;;;;23.23;4.70;;;;;;;17.50;100.00;100952.03;5053750;28;20457;-63
2023/07/30 08:29:13;;;;;;;23.35;5.25;;;;;;;17.55;100.00;100947.50;5057405;28;20371;-64
2023/07/30 08:31:40;;;;;;;22.75;4.82;;;;;;;17.53;100.00;100952.88;5058519;28;20021;-65
2023/07/30 08:34:05;;;;;;;22.60;5.00;;;;;;;17.59;100.00;100949.16;5057456;28;20426;-79
2023/07/30 08:36:30;;;;;;;23.33;5.15;;;;;;;17.57;100.00;100945.66;5058813;28;20033;-64
2023/07/30 08:38:56;;;;;;;20.98;4.90;;;;;;;17.52;100.00;100935.06;5066984;28;20467;-65
2023/07/30 08:41:21;;;;;;;23.13;5.25;;;;;;;17.55;100.00;100934.13;5063119;28;20399;-64
2023/07/30 08:43:48;;;;;;;21.17;4.78;;;;;;;17.62;100.00;100946.44;5066087;28;20068;-64
2023/07/30 08:46:15;;;;;;;22.20;4.80;;;;;;;17.66;100.00;100948.09;5064570;28;20035;-79
2023/07/30 08:48:40;;;;;;;21.83;5.20;;;;;;;17.60;100.00;100954.50;5064914;28;20056;-65
2023/07/30 08:51:06;;;;;;;20.67;4.63;;;;;;;17.30;100.00;100950.72;5064074;28;20116;-66
2023/07/30 08:53:32;;;;;;;22.88;5.38;;;;;;;16.49;100.00;100958.53;5063622;28;20037;-64
2023/07/30 08:55:58;;;;;;;25.33;6.28;;;;;;;15.68;100.00;100941.19;5066725;28;20400;-77
2023/07/30 08:58:26;;;;;;;27.15;7.50;;;;;;;15.21;100.00;100956.03;5058788;28;20104;-65
2023/07/30 09:00:54;;;;;;;25.73;7.78;;;;;;;15.01;100.00;100953.63;5066296;28;20115;-77
2023/07/30 09:03:22;;;;;;;27.65;8.45;;;;;;;15.27;100.00;100950.63;5063268;28;20456;-80
2023/07/30 09:05:48;;;;;;;27.83;10.25;;;;;;;15.39;100.00;100948.69;5065534;28;20353;-64
2023/07/30 09:08:14;;;;;;;27.88;9.82;;;;;;;15.42;100.00;100956.66;5063566;28;20035;-64
2023/07/30 09:10:40;;;;;;;28.33;9.50;;;;;;;15.51;100.00;100951.19;5065993;28;20119;-64
2023/07/30 09:13:05;;;;;;;27.80;9.55;;;;;;;15.70;100.00;100949.16;5063854;28;20479;-64
2023/07/30 09:15:39;;;;;;;27.90;9.80;;;;;;;15.93;100.00;100953.25;5064746;28;20052;-69
2023/07/30 09:18:06;;;;;;;26.38;9.18;;;;;;;16.08;100.00;100955.69;5063839;28;20031;-64
2023/07/30 09:20:38;;;;;;;23.10;7.13;;;;;;;15.99;100.00;100954.03;5064443;28;20086;-65
2023/07/30 09:23:05;;;;;;;24.45;7.20;;;;;;;15.90;100.00;100953.31;5064242;28;20032;-64
2023/07/30 09:25:31;;;;;;;23.10;6.97;;;;;;;15.99;100.00;100945.19;5064375;28;20074;-66
2023/07/30 09:27:56;;;;;;;23.77;7.20;;;;;;;16.48;100.00;100949.63;5064667;28;20395;-63
2023/07/30 09:30:29;;;;;;;23.85;6.70;;;;;;;16.64;100.00;100950.22;5063256;28;20029;-64
2023/07/30 09:32:56;;;;;;;21.90;6.07;;;;;;;16.68;100.00;100940.38;5065120;28;20077;-64
2023/07/30 09:35:24;;;;;;;23.23;5.38;;;;;;;16.77;100.00;100950.88;5062969;28;20572;-71
2023/07/30 09:37:50;;;;;;;21.20;4.90;;;;;;;17.05;100.00;100943.22;5065437;28;20115;-64
2023/07/30 09:40:18;;;;;;;19.10;4.18;;;;;;;17.11;100.00;100944.00;5062208;28;20033;-64
2023/07/30 09:42:45;;;;;;;19.17;4.05;;;;;;;16.93;100.00;100948.81;5065717;28;20111;-64
2023/07/30 09:45:23;;;;;;;20.83;3.95;;;;;;;16.74;100.00;100957.13;5062653;28;20031;-64
2023/07/30 09:47:50;;;;;;;19.85;4.40;;;;;;;16.66;100.00;100943.09;5059168;28;20052;-63
2023/07/30 09:50:15;;;;;;;21.20;4.20;;;;;;;16.71;100.00;100946.53;5065508;28;20043;-64
2023/07/30 09:52:43;;;;;;;18.23;4.30;;;;;;;16.83;100.00;100948.06;5061128;28;20099;-73
2023/07/30 09:55:09;;;;;;;19.92;4.13;;;;;;;17.11;100.00;100949.34;5064916;28;20036;-65
2023/07/30 09:57:36;;;;;;;20.52;4.40;;;;;;;17.43;100.00;100946.84;5063304;28;20432;-64
2023/07/30 10:00:03;;;;;;;18.90;4.18;;;;;;;17.61;100.00;100966.06;5063941;28;20029;-65
2023/07/30 10:02:31;;;;;;;17.90;3.92;;;;;;;17.68;100.00;100965.00;5063915;28;20032;-71
2023/07/30 10:04:58;;;;;;;20.13;4.03;;;;;;;17.88;100.00;100955.59;5063016;28;20031;-70
2023/07/30 10:07:27;;;;;;;18.77;3.83;;;;;;;18.01;100.00;100950.88;5064343;28;20036;-64
2023/07/30 10:09:58;;;;;;;19.42;3.80;;;;;;;17.93;100.00;100961.78;5062232;28;20606;-76
2023/07/30 10:12:30;;;;;;;18.17;3.63;;;;;;;17.97;100.00;100966.13;5064731;28;20147;-84
2023/07/30 10:14:56;;;;;;;18.15;3.50;;;;;;;18.15;100.00;100969.28;5062575;28;20024;-64
2023/07/30 10:17:22;;;;;;;19.17;3.70;;;;;;;18.19;100.00;100957.56;5064558;28;20465;-64
2023/07/30 10:19:48;;;;;;;18.85;3.60;;;;;;;18.37;100.00;100966.91;5061800;28;20033;-64
2023/07/30 10:22:14;;;;;;;17.70;3.40;;;;;;;18.78;100.00;100962.22;5057409;28;20033;-80
2023/07/30 10:24:55;;;;;;;20.83;3.60;;;;;;;19.46;100.00;100971.03;5060423;28;20032;-64
2023/07/30 10:27:24;;;;;;;18.55;3.35;;;;;;;19.89;100.00;100976.84;5052519;28;20033;-64
2023/07/30 10:30:09;;;;;;;16.33;3.53;;;;;;;19.85;100.00;100960.88;5056068;28;20029;-70
2023/07/30 10:32:55;;;;;;;16.67;3.47;;;;;;;19.66;100.00;100975.78;5055521;28;20025;-72
2023/07/30 10:35:41;;;;;;;15.05;3.35;;;;;;;19.52;100.00;100986.91;5059326;28;20025;-74
2023/07/30 10:38:15;;;;;;;16.08;3.38;;;;;;;19.23;100.00;101002.06;5063802;28;20464;-73
2023/07/30 10:40:40;;;;;;;15.55;3.22;;;;;;;18.81;100.00;100989.81;5058317;28;20024;-73
2023/07/30 10:43:16;;;;;;;14.52;3.20;;;;;;;18.53;100.00;100997.69;5061515;28;20079;-72
2023/07/30 10:45:51;;;;;;;19.85;3.80;;;;;;;18.53;100.00;101000.38;5057087;28;20032;-77
2023/07/30 10:48:17;;;;;;;14.57;3.45;;;;;;;18.79;100.00;100994.31;5056035;28;20061;-74
2023/07/30 10:50:43;;;;;;;14.10;3.42;;;;;;;19.40;100.00;100988.16;5060498;28;20083;-74
2023/07/30 10:53:08;;;;;;;16.60;3.30;;;;;;;20.77;100.00;100993.59;5063283;28;20033;-72
2023/07/30 10:55:34;;;;;;;16.02;3.28;;;;;;;21.02;100.00;100998.06;5065674;28;20024;-76
2023/07/30 10:57:59;;;;;;;15.75;3.33;;;;;;;20.16;100.00;101000.09;5062751;28;20060;-79
2023/07/30 11:00:25;;;;;;;17.25;3.30;;;;;;;19.73;100.00;100989.84;5063528;28;20444;-76
2023/07/30 11:02:54;;;;;;;15.10;3.40;;;;;;;19.48;100.00;100988.81;5060924;28;20079;-76
2023/07/30 11:05:20;;;;;;;16.60;3.40;;;;;;;19.22;100.00;100989.59;5062346;28;20036;-76